createdAt,value
2018-07-15T00:00:53.132Z,101411.12
2018-07-15T00:03:58.833Z,101408.91
2018-07-15T00:07:04.773Z,101403.15
2018-07-15T00:10:10.603Z,101403.73
2018-07-15T00:13:16.732Z,101410.80
2018-07-15T00:16:23.410Z,101412.62
2018-07-15T00:19:30.722Z,101414.19
2018-07-15T00:22:36.882Z,101406.69
2018-07-15T00:25:42.678Z,101418.98
2018-07-15T00:28:48.576Z,101413.45
2018-07-15T00:31:54.359Z,101409.52
2018-07-15T00:35:01.520Z,101404.44
2018-07-15T00:38:08.479Z,101411.53
2018-07-15T00:41:14.185Z,101408.12
2018-07-15T00:44:19.646Z,101414.72
2018-07-15T00:47:24.649Z,101411.88
2018-07-15T00:50:30.445Z,101409.08
2018-07-15T00:53:35.637Z,101418.25
2018-07-15T00:56:40.523Z,101414.13
2018-07-15T00:59:46.749Z,101417.23
2018-07-15T01:02:52.867Z,101406.69
2018-07-15T01:05:58.502Z,101406.77
2018-07-15T01:09:04.925Z,101407.71
2018-07-15T01:12:09.777Z,101406.65
2018-07-15T01:15:15.692Z,101414.08
2018-07-15T01:18:21.305Z,101415.63
2018-07-15T01:21:26.473Z,101416.53
2018-07-15T01:24:32.921Z,101415.53
2018-07-15T01:27:38.849Z,101415.58
2018-07-15T01:30:44.902Z,101415.41
2018-07-15T01:33:50.350Z,101417.99
2018-07-15T01:36:56.948Z,101413.48
2018-07-15T01:40:02.782Z,101411.50
2018-07-15T01:43:08.149Z,101409.06
2018-07-15T01:46:13.409Z,101408.30
2018-07-15T01:49:18.937Z,101404.70
2018-07-15T01:52:24.892Z,101407.58
2018-07-15T01:55:30.039Z,101404.39
2018-07-15T01:58:35.586Z,101415.21
2018-07-15T02:01:41.534Z,101407.66
2018-07-15T02:04:47.293Z,101412.13
2018-07-15T02:07:52.218Z,101403.63
2018-07-15T02:10:57.337Z,101405.83
2018-07-15T02:14:03.806Z,101410.21
2018-07-15T02:17:10.917Z,101409.94
2018-07-15T02:20:17.697Z,101400.16
2018-07-15T02:23:23.928Z,101399.02
2018-07-15T02:26:29.792Z,101398.63
2018-07-15T02:29:34.657Z,101397.97
2018-07-15T02:32:39.537Z,101395.78
2018-07-15T02:35:44.674Z,101396.97
2018-07-15T02:38:49.808Z,101400.03
2018-07-15T02:41:56.167Z,101403.50
2018-07-15T02:45:01.537Z,101396.23
2018-07-15T02:48:06.677Z,101399.64
2018-07-15T02:51:12.720Z,101395.30
2018-07-15T02:54:17.852Z,101402.08
2018-07-15T02:57:23.047Z,101396.65
2018-07-15T03:00:29.273Z,101393.31
2018-07-15T03:03:34.455Z,101398.45
2018-07-15T03:06:41.639Z,101401.79
2018-07-15T03:09:47.401Z,101402.59
2018-07-15T03:12:53.436Z,101398.83
2018-07-15T03:15:58.558Z,101391.25
2018-07-15T03:19:03.697Z,101396.78
2018-07-15T03:22:10.757Z,101391.00
2018-07-15T03:25:17.749Z,101393.19
2018-07-15T03:28:23.513Z,101394.02
2018-07-15T03:31:28.642Z,101389.05
2018-07-15T03:34:33.761Z,101396.13
2018-07-15T03:37:39.803Z,101402.11
2018-07-15T03:40:47.901Z,101398.05
2018-07-15T03:43:53.778Z,101399.61
2018-07-15T03:46:59.925Z,101398.31
2018-07-15T03:50:05.461Z,101397.27
2018-07-15T03:53:10.603Z,101400.16
2018-07-15T03:56:16.049Z,101399.45
2018-07-15T03:59:21.606Z,101409.29
2018-07-15T04:02:27.485Z,101399.52
2018-07-15T04:05:32.625Z,101402.86
2018-07-15T04:08:37.783Z,101406.40
2018-07-15T04:11:43.402Z,101397.65
2018-07-15T04:14:50.273Z,101398.68
2018-07-15T04:17:59.973Z,101391.28
2018-07-15T04:21:05.110Z,101395.14
2018-07-15T04:24:10.241Z,101393.79
2018-07-15T04:27:16.690Z,101398.55
2018-07-15T04:30:22.833Z,101403.76
2018-07-15T04:33:28.573Z,101401.51
2018-07-15T04:36:34.708Z,101394.46
2018-07-15T04:39:40.245Z,101393.55
2018-07-15T04:42:45.333Z,101396.22
2018-07-15T04:45:50.432Z,101397.15
2018-07-15T04:48:55.558Z,101394.48
2018-07-15T04:52:02.357Z,101393.45
2018-07-15T04:55:07.806Z,101397.17
2018-07-15T04:58:14.877Z,101398.28
2018-07-15T05:01:21.161Z,101401.45
2018-07-15T05:04:28.341Z,101401.73
2018-07-15T05:07:34.083Z,101401.97
2018-07-15T05:10:40.101Z,101407.75
2018-07-15T05:13:47.437Z,101409.31
2018-07-15T05:16:53.199Z,101406.98
2018-07-15T05:19:59.206Z,101412.19
2018-07-15T05:23:06.169Z,101405.09
2018-07-15T05:26:13.092Z,101412.74
2018-07-15T05:29:18.860Z,101412.49
2018-07-15T05:32:23.969Z,101417.50
2018-07-15T05:35:29.455Z,101417.25
2018-07-15T05:38:36.445Z,101418.83
2018-07-15T05:41:43.657Z,101421.83
2018-07-15T05:44:49.106Z,101423.23
2018-07-15T05:47:54.273Z,101424.99
2018-07-15T05:51:00.160Z,101425.19
2018-07-15T05:54:05.534Z,101422.69
2018-07-15T05:57:11.260Z,101427.88
2018-07-15T06:00:17.051Z,101426.70
2018-07-15T06:03:24.129Z,101422.98
2018-07-15T06:06:29.419Z,101425.22
2018-07-15T06:09:35.076Z,101422.39
2018-07-15T06:12:40.910Z,101421.62
2018-07-15T06:15:46.970Z,101428.94
2018-07-15T06:18:52.893Z,101432.06
2018-07-15T06:21:59.712Z,101434.25
2018-07-15T06:25:06.029Z,101429.64
2018-07-15T06:28:12.066Z,101432.31
2018-07-15T06:31:18.684Z,101438.38
2018-07-15T06:34:24.405Z,101430.34
2018-07-15T06:37:31.576Z,101432.52
2018-07-15T06:40:37.474Z,101438.59
2018-07-15T06:43:44.596Z,101434.05
2018-07-15T06:46:51.766Z,101443.52
2018-07-15T06:49:58.330Z,101439.72
2018-07-15T06:53:04.914Z,101436.75
2018-07-15T06:56:10.314Z,101435.50
2018-07-15T06:59:17.340Z,101435.95
2018-07-15T07:02:25.830Z,101428.27
2018-07-15T07:05:31.269Z,101430.83
2018-07-15T07:08:37.502Z,101437.27
2018-07-15T07:11:43.508Z,101436.41
2018-07-15T07:14:49.386Z,101435.64
2018-07-15T07:17:55.661Z,101437.24
2018-07-15T07:21:01.294Z,101440.72
2018-07-15T07:24:07.098Z,101438.09
2018-07-15T07:27:12.439Z,101441.56
2018-07-15T07:30:19.470Z,101434.56
2018-07-15T07:33:25.931Z,101438.86
2018-07-15T07:36:32.364Z,101440.56
2018-07-15T07:39:37.872Z,101444.40
2018-07-15T07:42:43.711Z,101439.08
2018-07-15T07:45:49.734Z,101440.69
2018-07-15T07:48:55.729Z,101431.56
2018-07-15T07:52:01.689Z,101432.70
2018-07-15T07:55:07.482Z,101429.94
2018-07-15T07:58:13.361Z,101430.14
2018-07-15T08:01:18.563Z,101431.83
2018-07-15T08:04:23.693Z,101427.39
2018-07-15T08:07:29.459Z,101426.75
2018-07-15T08:10:35.459Z,101430.82
2018-07-15T08:13:41.227Z,101432.83
2018-07-15T08:16:47.610Z,101432.10
2018-07-15T08:19:52.724Z,101432.77
2018-07-15T08:22:57.840Z,101440.71
2018-07-15T08:26:03.181Z,101433.09
2018-07-15T08:29:09.108Z,101427.66
2018-07-15T08:32:14.689Z,101430.69
2018-07-15T08:35:19.558Z,101416.27
2018-07-15T08:38:24.381Z,101425.88
2018-07-15T08:41:31.641Z,101426.01
2018-07-15T08:44:37.362Z,101423.90
2018-07-15T08:47:42.973Z,101423.58
2018-07-15T08:50:48.799Z,101425.47
2018-07-15T08:53:54.537Z,101421.67
2018-07-15T08:56:59.687Z,101422.72
2018-07-15T09:00:05.756Z,101421.98
2018-07-15T09:03:11.782Z,101424.76
2018-07-15T09:06:17.796Z,101424.84
2018-07-15T09:09:22.921Z,101421.97
2018-07-15T09:12:30.039Z,101422.64
2018-07-15T09:15:35.894Z,101425.57
2018-07-15T09:18:40.700Z,101426.59
2018-07-15T09:21:46.208Z,101426.05
2018-07-15T09:24:51.498Z,101430.69
2018-07-15T09:27:56.689Z,101430.03
2018-07-15T09:31:02.091Z,101429.38
2018-07-15T09:34:07.229Z,101423.86
2018-07-15T09:37:12.654Z,101424.38
2018-07-15T09:40:18.883Z,101419.69
2018-07-15T09:43:24.076Z,101423.98
2018-07-15T09:46:29.190Z,101422.86
2018-07-15T09:49:34.921Z,101420.07
2018-07-15T09:52:40.186Z,101422.33
2018-07-15T09:55:46.309Z,101415.93
2018-07-15T09:58:51.410Z,101414.41
2018-07-15T10:01:56.533Z,101417.38
2018-07-15T10:05:01.705Z,101416.91
2018-07-15T10:08:08.878Z,101418.66
2018-07-15T10:11:14.296Z,101426.01
2018-07-15T10:14:19.140Z,101418.88
2018-07-15T10:17:24.023Z,101418.28
2018-07-15T10:20:29.565Z,101419.94
2018-07-15T10:23:35.385Z,101424.55
2018-07-15T10:26:41.505Z,101421.47
2018-07-15T10:29:47.203Z,101413.37
2018-07-15T10:32:52.889Z,101411.11
2018-07-15T10:35:58.173Z,101405.06
2018-07-15T10:39:03.477Z,101399.71
2018-07-15T10:42:09.225Z,101401.36
2018-07-15T10:45:14.103Z,101402.16
2018-07-15T10:48:20.605Z,101396.80
2018-07-15T10:51:26.604Z,101394.87
2018-07-15T10:54:33.129Z,101394.47
2018-07-15T10:57:39.206Z,101389.31
2018-07-15T11:00:45.034Z,101386.68
2018-07-15T11:03:50.567Z,101388.05
2018-07-15T11:06:56.196Z,101388.56
2018-07-15T11:10:01.330Z,101393.98
2018-07-15T11:13:06.232Z,101388.83
2018-07-15T11:16:11.749Z,101387.16
2018-07-15T11:19:17.226Z,101380.75
2018-07-15T11:22:22.803Z,101376.21
2018-07-15T11:25:29.257Z,101375.46
2018-07-15T11:28:35.397Z,101381.01
2018-07-15T11:31:42.350Z,101379.64
2018-07-15T11:34:47.812Z,101383.22
2018-07-15T11:37:52.945Z,101378.06
2018-07-15T11:41:00.241Z,101375.55
2018-07-15T11:44:06.136Z,101381.47
2018-07-15T11:47:12.152Z,101376.45
2018-07-15T11:50:17.323Z,101374.86
2018-07-15T11:53:22.183Z,101374.73
2018-07-15T11:56:27.733Z,101365.56
2018-07-15T11:59:33.627Z,101366.88
2018-07-15T12:02:39.488Z,101364.40
2018-07-15T12:05:44.617Z,101356.89
2018-07-15T12:08:51.611Z,101355.45
2018-07-15T12:11:56.717Z,101353.55
2018-07-15T12:15:02.241Z,101344.12
2018-07-15T12:18:09.430Z,101343.94
2018-07-15T12:21:16.515Z,101346.00
2018-07-15T12:24:23.248Z,101340.23
2018-07-15T12:27:28.687Z,101347.67
2018-07-15T12:30:33.532Z,101340.11
2018-07-15T12:33:38.354Z,101335.63
2018-07-15T12:36:44.939Z,101332.95
2018-07-15T12:39:50.369Z,101331.70
2018-07-15T12:42:57.316Z,101331.05
2018-07-15T12:46:02.870Z,101324.91
2018-07-15T12:49:08.949Z,101325.67
2018-07-15T12:52:14.176Z,101310.35
2018-07-15T12:55:19.125Z,101311.80
2018-07-15T12:58:24.281Z,101316.49
2018-07-15T13:01:29.195Z,101304.75
2018-07-15T13:04:34.309Z,101305.70
2018-07-15T13:07:39.457Z,101298.27
2018-07-15T13:10:44.997Z,101290.68
2018-07-15T13:13:50.150Z,101292.45
2018-07-15T13:16:56.174Z,101293.84
2018-07-15T13:20:01.503Z,101290.02
2018-07-15T13:23:07.321Z,101282.82
2018-07-15T13:26:13.019Z,101279.56
2018-07-15T13:29:17.845Z,101282.11
2018-07-15T13:32:23.997Z,101278.40
2018-07-15T13:35:30.578Z,101273.71
2018-07-15T13:38:37.912Z,101270.82
2018-07-15T13:41:45.046Z,101267.63
2018-07-15T13:44:50.582Z,101270.28
2018-07-15T13:47:56.629Z,101264.95
2018-07-15T13:51:02.902Z,101275.81
2018-07-15T13:54:09.625Z,101277.52
2018-07-15T13:57:14.746Z,101263.30
2018-07-15T14:00:21.482Z,101266.53
2018-07-15T14:03:27.214Z,101255.11
2018-07-15T14:06:32.032Z,101254.16
2018-07-15T14:09:37.400Z,101254.52
2018-07-15T14:12:42.293Z,101248.99
2018-07-15T14:15:47.697Z,101254.45
2018-07-15T14:18:52.513Z,101245.15
2018-07-15T14:21:59.285Z,101241.41
2018-07-15T14:25:05.054Z,101239.50
2018-07-15T14:28:10.706Z,101235.91
2018-07-15T14:31:15.861Z,101240.39
2018-07-15T14:34:21.729Z,101233.84
2018-07-15T14:37:26.906Z,101228.59
2018-07-15T14:40:32.462Z,101230.78
2018-07-15T14:43:38.240Z,101224.92
2018-07-15T14:46:44.022Z,101226.59
2018-07-15T14:49:50.030Z,101226.28
2018-07-15T14:52:55.181Z,101226.45
2018-07-15T14:56:01.859Z,101224.00
2018-07-15T14:59:08.902Z,101226.83
2018-07-15T15:02:14.585Z,101225.68
2018-07-15T15:05:21.359Z,101223.39
2018-07-15T15:08:26.679Z,101219.77
2018-07-15T15:11:31.514Z,101226.29
2018-07-15T15:14:38.274Z,101218.55
2018-07-15T15:17:44.155Z,101218.80
2018-07-15T15:20:49.941Z,101211.19
2018-07-15T15:23:56.154Z,101208.86
2018-07-15T15:27:01.794Z,101203.86
2018-07-15T15:30:06.917Z,101207.73
2018-07-15T15:33:12.166Z,101199.45
2018-07-15T15:36:17.401Z,101195.16
2018-07-15T15:39:22.240Z,101192.81
2018-07-15T15:42:28.479Z,101195.65
2018-07-15T15:45:34.482Z,101190.55
2018-07-15T15:48:39.334Z,101188.59
2018-07-15T15:51:45.198Z,101187.46
2018-07-15T15:54:50.042Z,101181.56
2018-07-15T15:57:55.299Z,101181.24
2018-07-15T16:01:01.006Z,101173.24
2018-07-15T16:04:06.993Z,101170.80
2018-07-15T16:07:11.826Z,101168.35
2018-07-15T16:10:17.313Z,101165.44
2018-07-15T16:13:22.177Z,101164.79
2018-07-15T16:16:28.333Z,101155.92
2018-07-15T16:19:33.969Z,101145.58
2018-07-15T16:22:38.834Z,101152.92
2018-07-15T16:25:45.409Z,101147.50
2018-07-15T16:28:51.264Z,101141.25
2018-07-15T16:31:56.963Z,101143.03
2018-07-15T16:35:02.794Z,101144.63
2018-07-15T16:38:07.645Z,101137.08
2018-07-15T16:41:13.206Z,101134.12
2018-07-15T16:44:19.085Z,101132.91
2018-07-15T16:47:25.324Z,101134.05
2018-07-15T16:50:30.189Z,101132.89
2018-07-15T16:53:35.050Z,101131.08
2018-07-15T16:56:40.658Z,101134.80
2018-07-15T16:59:45.861Z,101133.80
2018-07-15T17:02:51.673Z,101130.19
2018-07-15T17:05:57.527Z,101140.75
2018-07-15T17:09:02.689Z,101134.97
2018-07-15T17:12:07.751Z,101131.78
2018-07-15T17:15:12.998Z,101132.86
2018-07-15T17:18:19.073Z,101127.90
2018-07-15T17:21:23.939Z,101128.98
2018-07-15T17:24:28.742Z,101131.87
2018-07-15T17:27:34.819Z,101135.91
2018-07-15T17:30:39.636Z,101130.63
2018-07-15T17:33:44.529Z,101128.41
2018-07-15T17:36:49.513Z,101138.16
2018-07-15T17:39:54.756Z,101138.40
2018-07-15T17:43:00.482Z,101137.81
2018-07-15T17:46:05.930Z,101143.17
2018-07-15T17:49:11.791Z,101144.22
2018-07-15T17:52:17.951Z,101133.82
2018-07-15T17:55:22.809Z,101143.59
2018-07-15T17:58:28.344Z,101139.06
2018-07-15T18:01:35.046Z,101137.86
2018-07-15T18:04:40.840Z,101139.05
2018-07-15T18:07:46.657Z,101146.16
2018-07-15T18:10:52.318Z,101143.31
2018-07-15T18:13:58.090Z,101142.52
2018-07-15T18:17:03.228Z,101147.52
2018-07-15T18:20:08.893Z,101146.28
2018-07-15T18:23:14.538Z,101146.52
2018-07-15T18:26:20.388Z,101148.52
2018-07-15T18:29:26.642Z,101153.33
2018-07-15T18:32:32.265Z,101157.83
2018-07-15T18:35:38.118Z,101151.49
2018-07-15T18:38:42.999Z,101159.09
2018-07-15T18:41:47.849Z,101158.17
2018-07-15T18:44:53.202Z,101167.56
2018-07-15T18:47:58.222Z,101166.64
2018-07-15T18:51:04.334Z,101170.31
2018-07-15T18:54:10.097Z,101165.58
2018-07-15T18:57:17.752Z,101172.64
2018-07-15T19:00:22.914Z,101173.55
2018-07-15T19:03:28.006Z,101174.07
2018-07-15T19:06:33.689Z,101175.59
2018-07-15T19:09:38.853Z,101173.50
2018-07-15T19:12:44.633Z,101169.41
2018-07-15T19:15:50.396Z,101172.58
2018-07-15T19:18:56.170Z,101184.86
2018-07-15T19:22:02.731Z,101177.22
2018-07-15T19:25:08.543Z,101177.38
2018-07-15T19:28:15.812Z,101184.70
2018-07-15T19:31:21.445Z,101179.16
2018-07-15T19:34:26.318Z,101181.93
2018-07-15T19:37:31.154Z,101182.57
2018-07-15T19:40:36.742Z,101191.07
2018-07-15T19:43:42.887Z,101188.27
2018-07-15T19:46:48.609Z,101186.63
2018-07-15T19:49:54.453Z,101187.77
2018-07-15T19:52:59.525Z,101189.48
2018-07-15T19:56:04.713Z,101187.98
2018-07-15T19:59:10.452Z,101190.38
2018-07-15T20:02:15.605Z,101190.14
2018-07-15T20:05:20.678Z,101192.09
2018-07-15T20:08:26.429Z,101196.73
2018-07-15T20:11:32.215Z,101197.34
2018-07-15T20:14:37.662Z,101202.72
2018-07-15T20:17:43.466Z,101205.11
2018-07-15T20:20:50.228Z,101209.27
2018-07-15T20:23:56.002Z,101213.20
2018-07-15T20:27:01.779Z,101206.45
2018-07-15T20:30:07.950Z,101198.75
2018-07-15T20:33:13.720Z,101205.41
2018-07-15T20:36:20.925Z,101200.31
2018-07-15T20:39:26.569Z,101200.39
2018-07-15T20:42:32.439Z,101207.39
2018-07-15T20:45:37.617Z,101207.62
2018-07-15T20:48:42.790Z,101207.60
2018-07-15T20:51:47.682Z,101207.73
2018-07-15T20:54:53.406Z,101209.84
2018-07-15T20:57:58.793Z,101204.28
2018-07-15T21:01:04.484Z,101206.52
2018-07-15T21:04:09.357Z,101209.59
2018-07-15T21:07:30.578Z,101200.94
2018-07-15T21:10:35.642Z,101204.01
2018-07-15T21:13:42.482Z,101200.31
2018-07-15T21:16:48.901Z,101198.51
2018-07-15T21:19:53.730Z,101199.15
2018-07-15T21:22:59.296Z,101195.25
2018-07-15T21:26:05.021Z,101193.08
2018-07-15T21:29:10.839Z,101197.33
2018-07-15T21:32:16.298Z,101195.28
2018-07-15T21:35:21.409Z,101195.63
2018-07-15T21:38:26.221Z,101194.41
2018-07-15T21:41:31.570Z,101198.96
2018-07-15T21:44:36.489Z,101199.89
2018-07-15T21:47:41.576Z,101194.29
2018-07-15T21:50:46.390Z,101198.53
2018-07-15T21:53:52.246Z,101194.70
2018-07-15T21:56:57.944Z,101202.11
2018-07-15T22:00:02.972Z,101200.76
2018-07-15T22:03:08.369Z,101204.16
2018-07-15T22:06:24.355Z,101206.59
2018-07-15T22:09:56.881Z,101211.45
2018-07-15T22:13:01.782Z,101208.36
2018-07-15T22:16:06.989Z,101208.41
2018-07-15T22:19:12.539Z,101211.08
2018-07-15T22:22:18.338Z,101213.87
2018-07-15T22:25:23.195Z,101214.52
2018-07-15T22:28:28.034Z,101215.28
2018-07-15T22:31:32.949Z,101217.84
2018-07-15T22:34:38.826Z,101218.50
2018-07-15T22:37:44.440Z,101222.35
2018-07-15T22:40:50.412Z,101221.91
2018-07-15T22:43:56.197Z,101224.11
2018-07-15T22:47:03.406Z,101220.86
2018-07-15T22:50:08.941Z,101217.19
2018-07-15T22:53:14.349Z,101219.63
2018-07-15T22:56:19.287Z,101213.17
2018-07-15T22:59:24.463Z,101208.77
2018-07-15T23:02:31.682Z,101209.16
2018-07-15T23:05:51.343Z,101205.63
2018-07-15T23:08:57.541Z,101209.52
2018-07-15T23:12:03.797Z,101205.67
2018-07-15T23:15:10.369Z,101206.99
2018-07-15T23:18:16.865Z,101197.67
2018-07-15T23:21:22.564Z,101200.22
2018-07-15T23:24:27.401Z,101194.77
2018-07-15T23:27:33.191Z,101197.84
2018-07-15T23:30:39.906Z,101192.09
2018-07-15T23:33:45.453Z,101200.64
2018-07-15T23:36:50.295Z,101200.38
2018-07-15T23:39:55.562Z,101207.95
2018-07-15T23:43:01.641Z,101200.48
2018-07-15T23:46:07.747Z,101203.45
2018-07-15T23:49:12.627Z,101205.05
2018-07-15T23:52:17.782Z,101207.00
2018-07-15T23:55:23.865Z,101206.08
2018-07-15T23:58:29.744Z,101205.08
